createdAt,value
2017-11-13T00:01:38.623Z,4.70
2017-11-13T00:04:06.157Z,4.35
2017-11-13T00:06:34.478Z,4.43
2017-11-13T00:09:02.075Z,5.22
2017-11-13T00:11:29.594Z,6.47
2017-11-13T00:13:57.132Z,5.22
2017-11-13T00:16:24.677Z,6.47
2017-11-13T00:18:52.980Z,8.43
2017-11-13T00:21:20.540Z,5.93
2017-11-13T00:23:48.101Z,5.72
2017-11-13T00:26:15.633Z,8.13
2017-11-13T00:28:43.943Z,6.60
2017-11-13T00:31:11.499Z,4.50
2017-11-13T00:33:39.061Z,5.37
2017-11-13T00:36:06.622Z,5.80
2017-11-13T00:38:34.199Z,5.72
2017-11-13T00:41:01.773Z,6.20
2017-11-13T00:43:29.310Z,6.28
2017-11-13T00:45:56.851Z,5.30
2017-11-13T00:48:24.398Z,6.55
2017-11-13T00:50:51.926Z,6.82
2017-11-13T00:53:19.478Z,6.90
2017-11-13T00:55:47.011Z,7.43
2017-11-13T00:58:14.570Z,11.25
2017-11-13T01:00:42.108Z,7.32
2017-11-13T01:03:09.661Z,6.15
2017-11-13T01:05:37.183Z,6.37
2017-11-13T01:08:04.749Z,6.30
2017-11-13T01:10:33.051Z,8.57
2017-11-13T01:13:01.345Z,5.53
2017-11-13T01:15:28.886Z,6.72
2017-11-13T01:17:57.179Z,6.53
2017-11-13T01:20:24.725Z,5.45
2017-11-13T01:22:53.022Z,5.62
2017-11-13T01:25:20.592Z,8.02
2017-11-13T01:27:48.126Z,9.45
2017-11-13T01:30:15.706Z,5.90
2017-11-13T01:32:43.243Z,11.18
2017-11-13T01:35:10.769Z,7.53
2017-11-13T01:37:38.311Z,6.85
2017-11-13T01:40:05.868Z,7.07
2017-11-13T01:42:33.434Z,7.68
2017-11-13T01:45:00.986Z,5.47
2017-11-13T01:47:28.590Z,5.50
2017-11-13T01:49:56.901Z,5.05
2017-11-13T01:52:24.451Z,8.00
2017-11-13T01:54:51.975Z,5.35
2017-11-13T01:57:21.030Z,7.22
2017-11-13T01:59:48.565Z,7.93
2017-11-13T02:02:16.115Z,6.45
2017-11-13T02:04:43.650Z,6.32
2017-11-13T02:07:11.979Z,6.18
2017-11-13T02:09:39.540Z,5.20
2017-11-13T02:12:07.136Z,5.90
2017-11-13T02:14:34.701Z,7.55
2017-11-13T02:17:02.250Z,6.82
2017-11-13T02:19:29.824Z,6.30
2017-11-13T02:21:58.186Z,10.00
2017-11-13T02:24:25.713Z,6.40
2017-11-13T02:26:53.282Z,6.60
2017-11-13T02:29:20.854Z,7.20
2017-11-13T02:31:48.408Z,7.00
2017-11-13T02:34:15.952Z,8.13
2017-11-13T02:36:43.502Z,7.90
2017-11-13T02:39:11.056Z,7.72
2017-11-13T02:41:38.614Z,5.80
2017-11-13T02:44:06.140Z,7.32
2017-11-13T02:46:34.477Z,8.65
2017-11-13T02:49:02.025Z,7.45
2017-11-13T02:51:29.562Z,5.70
2017-11-13T02:53:57.106Z,6.22
2017-11-13T02:56:25.527Z,11.95
2017-11-13T02:58:53.070Z,6.82
2017-11-13T03:01:20.616Z,9.05
2017-11-13T03:03:48.910Z,6.32
2017-11-13T03:06:16.512Z,7.68
2017-11-13T03:08:44.074Z,9.38
2017-11-13T03:11:11.606Z,7.80
2017-11-13T03:13:39.210Z,7.12
2017-11-13T03:16:06.769Z,9.48
2017-11-13T03:18:34.330Z,6.30
2017-11-13T03:21:01.852Z,5.32
2017-11-13T03:23:29.419Z,7.47
2017-11-13T03:25:56.941Z,7.18
2017-11-13T03:28:24.473Z,9.63
2017-11-13T03:30:52.791Z,6.90
2017-11-13T03:33:20.333Z,10.23
2017-11-13T03:35:47.886Z,9.75
2017-11-13T03:38:15.410Z,6.55
2017-11-13T03:40:43.713Z,6.60
2017-11-13T03:43:11.239Z,5.65
2017-11-13T03:45:38.791Z,5.80
2017-11-13T03:48:06.324Z,5.68
2017-11-13T03:50:33.867Z,5.93
2017-11-13T03:53:01.407Z,6.15
2017-11-13T03:55:28.966Z,6.97
2017-11-13T03:57:56.512Z,8.18
2017-11-13T04:00:24.870Z,5.40
2017-11-13T04:02:52.421Z,8.27
2017-11-13T04:05:19.946Z,5.50
2017-11-13T04:07:47.492Z,6.47
2017-11-13T04:10:15.022Z,6.18
2017-11-13T04:12:43.355Z,6.18
2017-11-13T04:15:10.879Z,5.18
2017-11-13T04:17:38.434Z,7.03
2017-11-13T04:20:05.985Z,7.85
2017-11-13T04:22:34.295Z,9.50
2017-11-13T04:25:01.810Z,8.40
2017-11-13T04:27:30.125Z,7.25
2017-11-13T04:29:57.674Z,11.20
2017-11-13T04:32:25.195Z,9.60
2017-11-13T04:34:52.751Z,9.57
2017-11-13T04:37:20.299Z,8.00
2017-11-13T04:39:47.861Z,10.40
2017-11-13T04:42:15.426Z,11.05
2017-11-13T04:44:42.992Z,7.87
2017-11-13T04:47:10.518Z,8.95
2017-11-13T04:49:38.835Z,10.95
2017-11-13T04:52:06.362Z,6.82
2017-11-13T04:54:34.711Z,9.90
2017-11-13T04:57:03.029Z,15.68
2017-11-13T04:59:30.602Z,8.23
2017-11-13T05:01:58.141Z,9.73
2017-11-13T05:04:25.671Z,7.07
2017-11-13T05:06:53.245Z,6.70
2017-11-13T05:09:21.579Z,7.18
2017-11-13T05:11:49.123Z,4.85
2017-11-13T05:14:16.656Z,6.40
2017-11-13T05:16:44.194Z,5.70
2017-11-13T05:19:12.485Z,7.43
2017-11-13T05:21:40.074Z,7.35
2017-11-13T05:24:07.616Z,9.20
2017-11-13T05:26:35.182Z,7.80
2017-11-13T05:29:02.744Z,8.10
2017-11-13T05:31:30.312Z,8.65
2017-11-13T05:33:57.852Z,10.80
2017-11-13T05:36:25.396Z,8.45
2017-11-13T05:38:53.702Z,12.75
2017-11-13T05:41:21.286Z,9.10
2017-11-13T05:43:48.826Z,12.07
2017-11-13T05:46:16.359Z,10.50
2017-11-13T05:48:44.684Z,16.25
2017-11-13T05:51:12.210Z,11.75
2017-11-13T05:53:39.782Z,12.20
2017-11-13T05:56:07.309Z,13.07
2017-11-13T05:58:35.652Z,11.57
2017-11-13T06:01:03.182Z,11.52
2017-11-13T06:03:30.754Z,13.02
2017-11-13T06:05:58.314Z,11.57
2017-11-13T06:08:26.733Z,14.00
2017-11-13T06:10:55.059Z,12.00
2017-11-13T06:13:22.616Z,12.65
2017-11-13T06:15:50.150Z,14.00
2017-11-13T06:18:18.444Z,13.05
2017-11-13T06:20:46.211Z,14.70
2017-11-13T06:23:13.738Z,16.55
2017-11-13T06:25:42.064Z,17.65
2017-11-13T06:28:09.616Z,18.05
2017-11-13T06:30:37.948Z,16.25
2017-11-13T06:33:06.254Z,16.85
2017-11-13T06:35:33.814Z,20.90
2017-11-13T06:38:01.355Z,18.33
2017-11-13T06:40:29.674Z,19.50
2017-11-13T06:42:57.209Z,22.30
2017-11-13T06:45:24.757Z,19.73
2017-11-13T06:47:53.062Z,19.58
2017-11-13T06:50:20.605Z,21.10
2017-11-13T06:52:48.165Z,19.37
2017-11-13T06:55:15.713Z,21.25
2017-11-13T06:57:43.273Z,18.95
2017-11-13T07:00:10.907Z,21.12
2017-11-13T07:02:38.439Z,21.52
2017-11-13T07:05:06.006Z,20.75
2017-11-13T07:07:34.314Z,23.10
2017-11-13T07:10:01.874Z,18.50
2017-11-13T07:12:29.411Z,17.00
2017-11-13T07:14:57.750Z,19.52
2017-11-13T07:17:25.282Z,17.02
2017-11-13T07:19:52.806Z,21.02
2017-11-13T07:22:21.154Z,19.27
2017-11-13T07:24:48.703Z,20.77
2017-11-13T07:27:16.254Z,23.98
2017-11-13T07:29:43.779Z,20.40
2017-11-13T07:32:11.330Z,16.62
2017-11-13T07:34:39.638Z,16.85
2017-11-13T07:37:07.190Z,20.05
2017-11-13T07:39:34.734Z,18.00
2017-11-13T07:42:02.267Z,19.80
2017-11-13T07:44:30.605Z,19.23
2017-11-13T07:46:58.170Z,19.27
2017-11-13T07:49:25.751Z,17.35
2017-11-13T07:51:53.282Z,14.25
2017-11-13T07:54:20.827Z,18.08
2017-11-13T07:56:48.379Z,19.67
2017-11-13T07:59:15.959Z,16.23
2017-11-13T08:01:43.515Z,17.10
2017-11-13T08:04:11.177Z,15.52
2017-11-13T08:06:38.720Z,13.10
2017-11-13T08:09:06.257Z,14.60
2017-11-13T08:11:34.583Z,13.65
2017-11-13T08:14:02.109Z,11.32
2017-11-13T08:16:29.661Z,8.60
2017-11-13T08:18:57.961Z,13.32
2017-11-13T08:21:25.521Z,11.70
2017-11-13T08:23:53.050Z,12.00
2017-11-13T08:26:21.338Z,8.40
2017-11-13T08:28:48.902Z,8.30
2017-11-13T08:31:16.429Z,7.50
2017-11-13T08:33:43.981Z,6.97
2017-11-13T08:36:11.541Z,8.48
2017-11-13T08:38:39.893Z,8.15
2017-11-13T08:41:07.423Z,5.00
2017-11-13T08:43:34.966Z,5.53
2017-11-13T08:46:02.522Z,5.72
2017-11-13T08:48:30.832Z,6.00
2017-11-13T08:50:58.378Z,6.93
2017-11-13T08:53:25.950Z,6.28
2017-11-13T08:55:53.514Z,6.65
2017-11-13T08:58:21.061Z,5.53
2017-11-13T09:00:48.619Z,8.23
2017-11-13T09:03:16.154Z,8.45
2017-11-13T09:05:44.465Z,6.75
2017-11-13T09:08:12.006Z,10.13
2017-11-13T09:10:39.570Z,10.10
2017-11-13T09:13:07.103Z,9.15
2017-11-13T09:15:35.422Z,9.93
2017-11-13T09:18:02.975Z,10.52
2017-11-13T09:20:30.545Z,12.25
2017-11-13T09:22:58.087Z,10.98
2017-11-13T09:25:25.631Z,13.48
2017-11-13T09:27:53.958Z,11.82
2017-11-13T09:30:21.515Z,11.32
2017-11-13T09:32:49.078Z,12.15
2017-11-13T09:35:16.603Z,13.13
2017-11-13T09:37:44.175Z,14.87
2017-11-13T09:40:11.739Z,12.23
2017-11-13T09:42:39.341Z,10.93
2017-11-13T09:45:06.938Z,11.57
2017-11-13T09:47:34.609Z,9.60
2017-11-13T09:50:02.206Z,9.73
2017-11-13T09:52:29.782Z,9.80
2017-11-13T09:54:58.251Z,9.40
2017-11-13T09:57:26.095Z,10.63
2017-11-13T09:59:53.775Z,13.35
2017-11-13T10:02:21.523Z,9.75
2017-11-13T10:04:49.115Z,15.75
2017-11-13T10:07:16.722Z,10.20
2017-11-13T10:09:44.318Z,9.32
2017-11-13T10:12:11.996Z,11.27
2017-11-13T10:14:39.833Z,7.50
2017-11-13T10:17:07.700Z,6.37
2017-11-13T10:19:35.464Z,9.45
2017-11-13T10:22:03.073Z,9.38
2017-11-13T10:24:31.487Z,7.85
2017-11-13T10:26:59.078Z,6.80
2017-11-13T10:29:26.705Z,7.47
2017-11-13T10:31:54.420Z,8.52
2017-11-13T10:34:22.011Z,8.80
2017-11-13T10:36:50.384Z,6.93
2017-11-13T10:39:19.977Z,4.75
2017-11-13T10:41:48.390Z,11.88
2017-11-13T10:44:15.988Z,8.65
2017-11-13T10:46:43.574Z,7.03
2017-11-13T10:49:11.172Z,5.35
2017-11-13T10:51:38.794Z,7.95
2017-11-13T10:54:07.141Z,5.80
2017-11-13T10:56:34.909Z,6.82
2017-11-13T10:59:02.668Z,8.38
2017-11-13T11:01:30.281Z,6.62
2017-11-13T11:03:58.699Z,8.45
2017-11-13T11:06:26.305Z,6.95
2017-11-13T11:08:53.962Z,7.05
2017-11-13T11:11:21.563Z,11.38
2017-11-13T11:13:49.151Z,7.07
2017-11-13T11:16:31.687Z,8.55
2017-11-13T11:19:17.129Z,8.32
2017-11-13T11:21:50.576Z,6.85
2017-11-13T11:24:18.171Z,8.43
2017-11-13T11:26:46.685Z,12.55
2017-11-13T11:29:33.958Z,11.12
2017-11-13T11:32:17.222Z,13.00
2017-11-13T11:34:45.715Z,10.02
2017-11-13T11:37:13.321Z,12.00
2017-11-13T11:39:40.918Z,18.02
2017-11-13T11:42:08.517Z,15.23
2017-11-13T11:44:51.906Z,13.70
2017-11-13T11:47:20.326Z,14.30
2017-11-13T11:49:47.916Z,10.35
2017-11-13T11:52:16.300Z,9.32
2017-11-13T11:54:48.209Z,10.98
2017-11-13T11:57:29.907Z,11.30
2017-11-13T11:59:57.475Z,14.32
2017-11-13T12:02:25.072Z,12.32
2017-11-13T12:04:53.439Z,15.27
2017-11-13T12:07:21.062Z,13.15
2017-11-13T12:09:48.725Z,13.95
2017-11-13T12:12:16.329Z,14.40
2017-11-13T12:14:43.978Z,12.23
2017-11-13T12:17:11.578Z,16.25
2017-11-13T12:19:39.240Z,10.32
2017-11-13T12:22:06.934Z,10.43
2017-11-13T12:24:34.520Z,14.45
2017-11-13T12:27:02.125Z,7.10
2017-11-13T12:29:29.686Z,11.85
2017-11-13T12:31:57.281Z,9.80
2017-11-13T12:34:24.917Z,9.90
2017-11-13T12:36:52.536Z,13.50
2017-11-13T12:39:20.917Z,12.60
2017-11-13T12:41:48.750Z,13.55
2017-11-13T12:44:16.317Z,8.88
2017-11-13T12:46:43.899Z,8.13
2017-11-13T12:49:11.655Z,7.50
2017-11-13T12:51:39.254Z,7.40
2017-11-13T12:54:06.914Z,12.75
2017-11-13T12:56:35.285Z,7.35
2017-11-13T12:59:03.678Z,8.30
2017-11-13T13:01:31.268Z,6.47
2017-11-13T13:03:58.901Z,7.25
2017-11-13T13:06:26.522Z,12.35
2017-11-13T13:08:54.095Z,6.45
2017-11-13T13:11:21.717Z,5.47
2017-11-13T13:13:49.298Z,6.68
2017-11-13T13:16:16.909Z,4.75
2017-11-13T13:18:44.498Z,4.62
2017-11-13T13:21:12.099Z,6.15
2017-11-13T13:23:39.693Z,5.87
2017-11-13T13:26:07.309Z,8.35
2017-11-13T13:28:34.913Z,6.12
2017-11-13T13:31:02.487Z,7.57
2017-11-13T13:33:30.081Z,8.48
2017-11-13T13:35:57.744Z,8.52
2017-11-13T13:38:25.348Z,7.50
2017-11-13T13:40:52.930Z,8.25
2017-11-13T13:43:20.714Z,12.48
2017-11-13T13:45:48.336Z,6.28
2017-11-13T13:48:16.679Z,4.90
2017-11-13T13:50:44.285Z,9.32
2017-11-13T13:53:11.874Z,6.95
2017-11-13T13:55:39.451Z,6.28
2017-11-13T13:58:07.076Z,6.62
2017-11-13T14:00:34.786Z,4.25
2017-11-13T14:03:02.394Z,5.03
2017-11-13T14:05:29.966Z,6.10
2017-11-13T14:07:57.585Z,5.03
2017-11-13T14:10:25.976Z,5.57
2017-11-13T14:12:54.332Z,5.97
2017-11-13T14:15:21.910Z,5.90
2017-11-13T14:17:50.330Z,5.30
2017-11-13T14:20:17.884Z,5.75
2017-11-13T14:22:45.494Z,5.32
2017-11-13T14:25:13.075Z,4.60
2017-11-13T14:27:41.601Z,7.57
2017-11-13T14:30:09.234Z,5.07
2017-11-13T14:32:36.802Z,5.90
2017-11-13T14:35:04.409Z,4.45
2017-11-13T14:37:32.037Z,9.07
2017-11-13T14:39:59.640Z,6.55
2017-11-13T14:42:27.234Z,6.07
2017-11-13T14:44:54.930Z,3.80
2017-11-13T14:47:23.290Z,8.63
2017-11-13T14:49:50.887Z,4.93
2017-11-13T14:52:19.311Z,5.25
2017-11-13T14:54:46.905Z,7.03
2017-11-13T14:57:14.482Z,8.63
2017-11-13T14:59:42.846Z,10.40
2017-11-13T15:02:10.495Z,6.05
2017-11-13T15:04:38.083Z,6.20
2017-11-13T15:07:06.412Z,7.35
2017-11-13T15:09:34.438Z,11.82
2017-11-13T15:12:02.746Z,10.85
2017-11-13T15:14:30.299Z,10.68
2017-11-13T15:16:57.873Z,10.68
2017-11-13T15:19:25.422Z,9.25
2017-11-13T15:21:52.961Z,10.35
2017-11-13T15:24:21.305Z,10.05
2017-11-13T15:26:48.861Z,8.88
2017-11-13T15:29:16.403Z,8.95
2017-11-13T15:31:43.932Z,7.40
2017-11-13T15:34:11.511Z,10.00
2017-11-13T15:36:39.055Z,4.97
2017-11-13T15:39:06.611Z,9.35
2017-11-13T15:41:34.142Z,6.80
2017-11-13T15:44:01.670Z,6.18
2017-11-13T15:46:29.230Z,11.98
2017-11-13T15:48:56.783Z,9.15
2017-11-13T15:51:24.319Z,7.97
2017-11-13T15:53:51.845Z,10.30
2017-11-13T15:56:20.163Z,10.45
2017-11-13T15:58:47.719Z,11.98
2017-11-13T16:01:15.278Z,8.40
2017-11-13T16:03:42.834Z,10.48
2017-11-13T16:06:10.382Z,12.95
2017-11-13T16:08:37.921Z,15.30
2017-11-13T16:11:06.241Z,16.42
2017-11-13T16:13:33.790Z,19.62
2017-11-13T16:16:01.346Z,17.62
2017-11-13T16:18:28.933Z,15.43
2017-11-13T16:20:56.472Z,16.73
2017-11-13T16:23:24.034Z,15.50
2017-11-13T16:25:51.583Z,18.62
2017-11-13T16:28:19.676Z,16.35
2017-11-13T16:30:47.250Z,15.27
2017-11-13T16:33:14.801Z,13.00
2017-11-13T16:35:42.341Z,16.80
2017-11-13T16:38:09.916Z,21.55
2017-11-13T16:40:37.461Z,16.00
2017-11-13T16:43:05.032Z,21.62
2017-11-13T16:45:32.574Z,19.10
2017-11-13T16:48:00.127Z,18.40
2017-11-13T16:50:27.677Z,22.00
2017-11-13T16:52:56.030Z,20.23
2017-11-13T16:55:23.564Z,16.87
2017-11-13T16:57:51.862Z,14.07
2017-11-13T17:00:20.199Z,15.27
2017-11-13T17:02:47.739Z,23.50
2017-11-13T17:05:15.300Z,18.37
2017-11-13T17:07:42.853Z,14.02
2017-11-13T17:10:10.417Z,15.27
2017-11-13T17:12:37.982Z,21.48
2017-11-13T17:15:05.516Z,20.10
2017-11-13T17:17:33.065Z,18.65
2017-11-13T17:20:01.926Z,22.02
2017-11-13T17:22:29.481Z,19.83
2017-11-13T17:24:57.039Z,19.23
2017-11-13T17:27:24.591Z,25.83
2017-11-13T17:29:52.911Z,23.55
2017-11-13T17:32:20.454Z,21.30
2017-11-13T17:34:48.039Z,23.50
2017-11-13T17:37:15.564Z,25.27
2017-11-13T17:39:43.121Z,23.25
2017-11-13T17:42:10.686Z,27.02
2017-11-13T17:44:38.266Z,22.87
2017-11-13T17:47:07.320Z,26.55
2017-11-13T17:49:34.890Z,21.80
2017-11-13T17:52:02.463Z,22.42
2017-11-13T17:54:30.007Z,25.98
2017-11-13T17:56:57.559Z,23.67
2017-11-13T17:59:25.124Z,26.52
2017-11-13T18:01:52.659Z,25.83
2017-11-13T18:04:20.225Z,24.08
2017-11-13T18:06:47.763Z,23.50
2017-11-13T18:09:16.109Z,21.33
2017-11-13T18:11:43.658Z,20.70
2017-11-13T18:14:12.071Z,27.70
2017-11-13T18:16:40.411Z,24.35
2017-11-13T18:19:08.014Z,18.90
2017-11-13T18:21:35.579Z,24.83
2017-11-13T18:24:03.891Z,20.45
2017-11-13T18:26:31.446Z,28.23
2017-11-13T18:28:58.981Z,21.50
2017-11-13T18:31:26.538Z,22.52
2017-11-13T18:33:54.108Z,23.62
2017-11-13T18:36:21.657Z,22.60
2017-11-13T18:38:49.953Z,20.12
2017-11-13T18:41:17.525Z,22.70
2017-11-13T18:43:45.065Z,21.95
2017-11-13T18:46:12.595Z,26.25
2017-11-13T18:48:40.935Z,19.12
2017-11-13T18:51:08.479Z,21.85
2017-11-13T18:53:36.051Z,19.85
2017-11-13T18:56:03.603Z,23.75
2017-11-13T18:58:31.217Z,28.20
2017-11-13T19:00:59.547Z,27.70
2017-11-13T19:03:27.080Z,26.00
2017-11-13T19:05:54.640Z,27.00
2017-11-13T19:08:22.200Z,25.42
2017-11-13T19:10:50.619Z,26.65
2017-11-13T19:13:18.173Z,23.98
2017-11-13T19:15:45.743Z,23.23
2017-11-13T19:18:13.281Z,26.15
2017-11-13T19:20:40.837Z,23.60
2017-11-13T19:23:08.394Z,28.87
2017-11-13T19:25:36.675Z,31.95
2017-11-13T19:28:04.237Z,25.77
2017-11-13T19:30:31.789Z,24.80
2017-11-13T19:32:59.314Z,31.30
2017-11-13T19:35:27.649Z,26.33
2017-11-13T19:37:55.200Z,27.15
2017-11-13T19:40:22.777Z,29.42
2017-11-13T19:42:50.320Z,27.13
2017-11-13T19:45:17.863Z,31.60
2017-11-13T19:47:45.440Z,29.60
2017-11-13T19:50:12.994Z,23.45
2017-11-13T19:52:40.611Z,31.37
2017-11-13T19:55:08.977Z,28.95
2017-11-13T19:57:37.295Z,25.20
2017-11-13T20:00:04.903Z,31.40
2017-11-13T20:02:32.492Z,26.50
2017-11-13T20:05:00.873Z,26.83
2017-11-13T20:07:29.697Z,27.08
2017-11-13T20:09:59.113Z,25.10
2017-11-13T20:12:27.893Z,22.65
2017-11-13T20:14:55.772Z,31.48
2017-11-13T20:17:24.542Z,25.83
2017-11-13T20:19:52.511Z,26.15
2017-11-13T20:22:21.205Z,25.50
2017-11-13T20:24:49.168Z,32.50
2017-11-13T20:27:17.036Z,27.75
2017-11-13T20:29:44.803Z,22.55
2017-11-13T20:32:12.403Z,28.25
2017-11-13T20:34:40.034Z,26.62
2017-11-13T20:37:07.714Z,28.25
2017-11-13T20:39:35.313Z,29.48
2017-11-13T20:42:03.610Z,31.87
2017-11-13T20:44:31.178Z,22.45
2017-11-13T20:46:58.730Z,37.85
2017-11-13T20:49:26.335Z,24.15
2017-11-13T20:51:53.950Z,31.25
2017-11-13T20:54:21.501Z,31.95
2017-11-13T20:56:49.064Z,29.70
2017-11-13T20:59:16.598Z,36.22
2017-11-13T21:01:44.920Z,40.17
2017-11-13T21:04:12.467Z,40.35
2017-11-13T21:06:40.207Z,47.80
2017-11-13T21:09:08.532Z,36.20
2017-11-13T21:11:36.074Z,29.75
2017-11-13T21:14:03.749Z,31.12
2017-11-13T21:16:31.317Z,34.85
2017-11-13T21:18:58.979Z,37.22
2017-11-13T21:21:26.542Z,37.70
2017-11-13T21:23:54.133Z,37.92
2017-11-13T21:26:21.708Z,34.65
2017-11-13T21:28:50.968Z,39.95
2017-11-13T21:31:18.609Z,35.00
2017-11-13T21:33:46.163Z,29.33
2017-11-13T21:36:13.711Z,36.90
2017-11-13T21:38:41.262Z,44.80
2017-11-13T21:41:09.566Z,37.55
2017-11-13T21:43:37.139Z,37.92
2017-11-13T21:46:04.695Z,31.87
2017-11-13T21:48:32.255Z,36.75
2017-11-13T21:50:59.808Z,33.13
2017-11-13T21:53:27.372Z,32.58
2017-11-13T21:55:54.930Z,42.62
2017-11-13T21:58:22.469Z,42.15
2017-11-13T22:00:50.051Z,36.60
2017-11-13T22:03:17.604Z,33.97
2017-11-13T22:05:45.155Z,41.22
2017-11-13T22:08:12.713Z,59.65
2017-11-13T22:10:40.251Z,45.25
2017-11-13T22:13:08.571Z,44.92
2017-11-13T22:15:36.133Z,43.03
2017-11-13T22:18:03.690Z,39.97
2017-11-13T22:20:31.230Z,37.95
2017-11-13T22:22:58.779Z,53.15
2017-11-13T22:25:26.350Z,46.72
2017-11-13T22:27:53.950Z,53.58
2017-11-13T22:30:21.485Z,45.12
2017-11-13T22:32:49.020Z,41.90
2017-11-13T22:35:16.571Z,48.25
2017-11-13T22:37:44.870Z,52.47
2017-11-13T22:40:12.438Z,51.90
2017-11-13T22:42:40.022Z,55.63
2017-11-13T22:45:07.596Z,60.33
2017-11-13T22:47:35.214Z,48.92
2017-11-13T22:50:02.757Z,45.88
2017-11-13T22:52:31.055Z,57.13
2017-11-13T22:54:58.615Z,42.85
2017-11-13T22:57:26.183Z,52.40
2017-11-13T22:59:53.755Z,45.15
2017-11-13T23:02:21.347Z,49.85
2017-11-13T23:04:48.892Z,57.30
2017-11-13T23:07:17.206Z,57.90
2017-11-13T23:09:45.546Z,55.88
2017-11-13T23:12:13.086Z,53.60
2017-11-13T23:14:40.652Z,51.17
2017-11-13T23:17:08.192Z,45.05
2017-11-13T23:19:35.739Z,45.08
2017-11-13T23:22:03.270Z,55.75
2017-11-13T23:24:31.614Z,46.33
2017-11-13T23:26:59.180Z,43.65
2017-11-13T23:29:26.729Z,33.00
2017-11-13T23:31:54.290Z,44.05
2017-11-13T23:34:21.826Z,36.47
2017-11-13T23:36:49.389Z,35.05
2017-11-13T23:39:16.933Z,42.53
2017-11-13T23:41:44.497Z,56.60
2017-11-13T23:44:12.034Z,44.58
2017-11-13T23:46:40.348Z,40.30
2017-11-13T23:49:07.914Z,46.70
2017-11-13T23:51:35.459Z,39.35
2017-11-13T23:54:03.020Z,46.45
2017-11-13T23:56:30.575Z,51.45
2017-11-13T23:58:58.129Z,47.90
